createdAt,value
2023-01-28T00:01:33.664Z,62.51
2023-01-28T00:04:01.415Z,62.32
2023-01-28T00:06:29.078Z,61.92
2023-01-28T00:08:57.196Z,61.42
2023-01-28T00:11:25.303Z,61.30
2023-01-28T00:13:55.637Z,60.71
2023-01-28T00:16:30.490Z,60.05
2023-01-28T00:18:58.061Z,60.08
2023-01-28T00:21:25.771Z,59.91
2023-01-28T00:23:54.802Z,59.99
2023-01-28T00:26:22.181Z,59.99
2023-01-28T00:28:49.794Z,59.84
2023-01-28T00:31:24.780Z,59.63
2023-01-28T00:33:53.042Z,59.59
2023-01-28T00:36:20.826Z,59.97
2023-01-28T00:39:17.039Z,59.50
2023-01-28T00:41:45.200Z,59.57
2023-01-28T00:44:13.505Z,59.29
2023-01-28T00:46:42.011Z,59.71
2023-01-28T00:49:09.570Z,59.35
2023-01-28T00:51:37.262Z,59.29
2023-01-28T00:54:05.948Z,59.70
2023-01-28T00:56:34.071Z,59.26
2023-01-28T00:59:02.255Z,59.59
2023-01-28T01:01:30.463Z,59.49
2023-01-28T01:04:03.049Z,59.19
2023-01-28T01:06:38.536Z,59.69
2023-01-28T01:09:08.504Z,59.23
2023-01-28T01:11:36.188Z,59.42
2023-01-28T01:14:05.239Z,60.14
2023-01-28T01:16:36.134Z,59.81
2023-01-28T01:19:03.371Z,60.62
2023-01-28T01:21:30.894Z,59.48
2023-01-28T01:23:59.143Z,59.44
2023-01-28T01:26:32.269Z,59.23
2023-01-28T01:28:59.800Z,58.98
2023-01-28T01:31:28.079Z,58.91
2023-01-28T01:33:56.272Z,59.57
2023-01-28T01:36:24.878Z,59.29
2023-01-28T01:38:55.737Z,59.08
2023-01-28T01:41:53.082Z,58.80
2023-01-28T01:44:57.533Z,58.50
2023-01-28T01:47:27.630Z,57.58
2023-01-28T01:49:54.812Z,57.53
2023-01-28T01:52:25.064Z,57.74
2023-01-28T01:54:54.921Z,57.80
2023-01-28T01:57:50.279Z,58.34
2023-01-28T02:00:19.019Z,57.82
2023-01-28T02:02:48.475Z,57.61
2023-01-28T02:05:18.301Z,58.61
2023-01-28T02:07:45.914Z,60.97
2023-01-28T02:10:13.892Z,61.11
2023-01-28T02:12:43.695Z,62.18
2023-01-28T02:15:18.612Z,62.24
2023-01-28T02:17:45.650Z,63.30
2023-01-28T02:20:52.058Z,63.13
2023-01-28T02:23:44.820Z,61.73
2023-01-28T02:26:23.292Z,62.02
2023-01-28T02:29:15.209Z,63.26
2023-01-28T02:31:53.830Z,61.97
2023-01-28T02:34:35.649Z,61.29
2023-01-28T02:37:28.648Z,60.98
2023-01-28T02:39:58.262Z,61.63
2023-01-28T02:42:28.426Z,61.30
2023-01-28T02:44:56.571Z,60.35
2023-01-28T02:47:42.812Z,61.77
2023-01-28T02:50:12.194Z,62.09
2023-01-28T02:53:03.602Z,61.27
2023-01-28T02:55:51.183Z,61.91
2023-01-28T02:58:31.829Z,62.38
2023-01-28T03:01:16.284Z,63.53
2023-01-28T03:03:50.277Z,64.37
2023-01-28T03:06:21.440Z,65.03
2023-01-28T03:09:11.227Z,68.20
2023-01-28T03:11:59.443Z,69.08
2023-01-28T03:14:44.560Z,68.83
2023-01-28T03:17:56.579Z,67.99
2023-01-28T03:20:43.970Z,68.58
2023-01-28T03:23:30.793Z,67.61
2023-01-28T03:26:18.148Z,67.75
2023-01-28T03:29:04.320Z,67.48
2023-01-28T03:31:50.484Z,65.71
2023-01-28T03:34:36.357Z,65.32
2023-01-28T03:37:11.839Z,66.13
2023-01-28T03:39:39.594Z,66.30
2023-01-28T03:42:12.526Z,65.97
2023-01-28T03:44:55.418Z,65.38
2023-01-28T03:47:31.014Z,65.93
2023-01-28T03:49:59.945Z,65.96
2023-01-28T03:52:30.397Z,65.64
2023-01-28T03:54:57.540Z,66.36
2023-01-28T03:57:27.412Z,66.27
2023-01-28T03:59:55.330Z,66.35
2023-01-28T04:02:23.401Z,66.52
2023-01-28T04:04:51.074Z,66.49
2023-01-28T04:07:19.495Z,66.60
2023-01-28T04:09:47.838Z,65.82
2023-01-28T04:12:15.592Z,65.56
2023-01-28T04:14:44.341Z,66.04
2023-01-28T04:17:11.864Z,67.98
2023-01-28T04:19:40.511Z,68.19
2023-01-28T04:22:08.466Z,68.67
2023-01-28T04:24:36.395Z,68.45
2023-01-28T04:27:04.445Z,67.73
2023-01-28T04:29:31.976Z,67.75
2023-01-28T04:32:00.142Z,67.78
2023-01-28T04:34:28.379Z,67.36
2023-01-28T04:37:16.441Z,67.80
2023-01-28T04:39:44.552Z,70.32
2023-01-28T04:42:12.668Z,71.11
2023-01-28T04:44:40.516Z,69.84
2023-01-28T04:47:08.653Z,71.00
2023-01-28T04:49:36.353Z,71.54
2023-01-28T04:52:04.119Z,72.66
2023-01-28T04:54:32.065Z,73.20
2023-01-28T04:56:59.851Z,74.19
2023-01-28T04:59:28.463Z,74.77
2023-01-28T05:01:58.238Z,76.02
2023-01-28T05:04:26.297Z,76.45
2023-01-28T05:06:54.422Z,77.76
2023-01-28T05:09:23.087Z,79.40
2023-01-28T05:11:51.003Z,80.87
2023-01-28T05:14:19.057Z,80.81
2023-01-28T05:16:46.968Z,81.37
2023-01-28T05:19:15.470Z,81.05
2023-01-28T05:21:43.507Z,81.44
2023-01-28T05:24:11.499Z,81.72
2023-01-28T05:26:39.174Z,81.92
2023-01-28T05:29:07.831Z,82.20
2023-01-28T05:31:35.404Z,81.85
2023-01-28T05:34:03.426Z,82.46
2023-01-28T05:36:31.373Z,82.21
2023-01-28T05:39:00.249Z,82.04
2023-01-28T05:41:27.854Z,81.69
2023-01-28T05:43:55.980Z,81.56
2023-01-28T05:46:25.197Z,81.62
2023-01-28T05:48:53.254Z,82.14
2023-01-28T05:51:21.434Z,82.44
2023-01-28T05:53:48.918Z,82.26
2023-01-28T05:56:16.862Z,82.36
2023-01-28T05:58:45.377Z,82.07
2023-01-28T06:01:13.570Z,82.91
2023-01-28T06:03:41.546Z,82.35
2023-01-28T06:06:09.325Z,82.34
2023-01-28T06:08:37.630Z,82.22
2023-01-28T06:11:05.739Z,82.14
2023-01-28T06:13:33.439Z,81.96
2023-01-28T06:16:01.014Z,82.65
2023-01-28T06:18:28.842Z,82.70
2023-01-28T06:20:56.933Z,83.93
2023-01-28T06:23:25.249Z,84.74
2023-01-28T06:25:56.031Z,84.69
2023-01-28T06:28:24.557Z,84.69
2023-01-28T06:30:52.929Z,85.69
2023-01-28T06:33:20.897Z,85.36
2023-01-28T06:35:48.609Z,85.03
2023-01-28T06:38:16.161Z,84.88
2023-01-28T06:40:44.168Z,84.80
2023-01-28T06:43:12.477Z,84.70
2023-01-28T06:45:40.430Z,84.48
2023-01-28T06:48:08.945Z,84.25
2023-01-28T06:50:36.785Z,84.52
2023-01-28T06:53:04.384Z,84.65
2023-01-28T06:55:31.963Z,83.93
2023-01-28T06:57:59.947Z,84.00
2023-01-28T07:00:28.021Z,83.61
2023-01-28T07:02:58.916Z,83.29
2023-01-28T07:05:26.974Z,82.54
2023-01-28T07:07:54.993Z,81.81
2023-01-28T07:10:24.748Z,81.50
2023-01-28T07:12:52.674Z,81.69
2023-01-28T07:15:21.136Z,81.60
2023-01-28T07:17:49.746Z,82.07
2023-01-28T07:20:18.273Z,82.19
2023-01-28T07:22:46.572Z,82.20
2023-01-28T07:25:14.720Z,81.82
2023-01-28T07:27:50.363Z,81.14
2023-01-28T07:30:18.950Z,81.09
2023-01-28T07:32:46.472Z,81.23
2023-01-28T07:35:33.344Z,79.82
2023-01-28T07:38:01.424Z,78.85
2023-01-28T07:40:29.405Z,78.95
2023-01-28T07:43:03.731Z,79.88
2023-01-28T07:45:31.980Z,80.75
2023-01-28T07:48:03.450Z,81.36
2023-01-28T07:50:33.145Z,81.00
2023-01-28T07:53:03.343Z,80.06
2023-01-28T07:55:31.509Z,79.03
2023-01-28T07:57:59.923Z,78.91
2023-01-28T08:00:27.641Z,79.26
2023-01-28T08:03:22.211Z,79.02
2023-01-28T08:05:50.858Z,77.88
2023-01-28T08:08:20.342Z,76.73
2023-01-28T08:10:50.940Z,75.76
2023-01-28T08:13:19.054Z,74.94
2023-01-28T08:15:47.018Z,73.68
2023-01-28T08:18:15.234Z,72.53
2023-01-28T08:20:44.598Z,72.09
2023-01-28T08:23:23.302Z,71.64
2023-01-28T08:25:52.736Z,70.98
2023-01-28T08:28:20.238Z,70.77
2023-01-28T08:30:51.163Z,70.97
2023-01-28T08:33:19.690Z,70.09
2023-01-28T08:35:47.246Z,69.17
2023-01-28T08:38:15.516Z,68.73
2023-01-28T08:40:43.717Z,68.85
2023-01-28T08:43:11.194Z,68.99
2023-01-28T08:45:38.440Z,68.98
2023-01-28T08:48:07.526Z,67.45
2023-01-28T08:50:36.913Z,66.94
2023-01-28T08:53:28.864Z,66.74
2023-01-28T08:55:57.169Z,67.00
2023-01-28T08:58:24.850Z,66.95
2023-01-28T09:00:52.844Z,67.38
2023-01-28T09:03:20.949Z,67.09
2023-01-28T09:05:50.412Z,66.69
2023-01-28T09:08:18.130Z,66.33
2023-01-28T09:10:46.522Z,65.07
2023-01-28T09:13:17.428Z,64.26
2023-01-28T09:15:45.274Z,64.03
2023-01-28T09:18:13.237Z,64.70
2023-01-28T09:20:40.306Z,64.68
2023-01-28T09:23:07.863Z,62.51
2023-01-28T09:25:39.107Z,61.74
2023-01-28T09:28:06.690Z,60.08
2023-01-28T09:30:37.309Z,60.09
2023-01-28T09:33:05.892Z,60.56
2023-01-28T09:35:34.894Z,58.94
2023-01-28T09:38:03.391Z,58.71
2023-01-28T09:40:38.660Z,57.97
2023-01-28T09:43:19.744Z,56.93
2023-01-28T09:45:49.037Z,56.15
2023-01-28T09:48:22.105Z,56.76
2023-01-28T09:50:59.722Z,56.15
2023-01-28T09:53:32.594Z,55.61
2023-01-28T09:56:03.333Z,54.33
2023-01-28T09:58:31.667Z,53.70
2023-01-28T10:01:24.828Z,53.48
2023-01-28T10:03:54.899Z,53.23
2023-01-28T10:06:29.607Z,53.43
2023-01-28T10:09:05.609Z,52.98
2023-01-28T10:11:51.175Z,52.54
2023-01-28T10:14:34.402Z,52.27
2023-01-28T12:22:46.666Z,37.22
2023-01-28T12:29:28.792Z,36.55
2023-01-28T12:32:39.727Z,36.56
2023-01-28T12:35:19.408Z,35.31
2023-01-28T12:37:57.889Z,35.14
2023-01-28T12:41:20.783Z,34.10
2023-01-28T12:44:10.473Z,34.69
2023-01-28T12:55:06.074Z,31.03
2023-01-28T12:57:41.636Z,31.62
2023-01-28T13:03:03.402Z,31.31
2023-01-28T13:05:35.504Z,32.42
2023-01-28T13:08:16.702Z,31.76
2023-01-28T13:16:41.348Z,32.94
2023-01-28T13:19:24.107Z,33.73
2023-01-28T13:21:52.586Z,33.40
2023-01-28T13:24:23.302Z,32.88
2023-01-28T13:26:56.122Z,33.00
2023-01-28T13:29:34.730Z,33.07
2023-01-28T13:32:04.346Z,32.37
2023-01-28T13:34:43.678Z,30.71
2023-01-28T13:37:36.294Z,30.16
2023-01-28T13:40:26.836Z,29.88
2023-01-28T13:43:25.666Z,30.53
2023-01-28T13:46:01.754Z,30.92
2023-01-28T13:48:37.581Z,30.73
2023-01-28T13:51:07.519Z,31.03
2023-01-28T13:53:42.684Z,31.78
2023-01-28T13:56:32.150Z,32.27
2023-01-28T13:59:22.275Z,32.17
2023-01-28T14:01:55.645Z,32.26
2023-01-28T14:04:41.891Z,31.79
2023-01-28T14:07:32.074Z,31.26
2023-01-28T14:10:24.124Z,30.84
2023-01-28T14:13:01.765Z,30.82
2023-01-28T14:15:48.371Z,30.36
2023-01-28T14:18:26.577Z,31.26
2023-01-28T14:20:55.052Z,31.36
2023-01-28T14:23:23.616Z,32.22
2023-01-28T14:26:14.464Z,32.06
2023-01-28T14:28:55.464Z,32.20
2023-01-28T14:31:36.278Z,31.44
2023-01-28T14:35:00.622Z,30.69
2023-01-28T14:37:30.388Z,30.51
2023-01-28T14:39:59.346Z,30.74
2023-01-28T14:42:41.998Z,30.71
2023-01-28T14:45:35.752Z,31.34
2023-01-28T14:48:02.447Z,31.29
2023-01-28T14:50:39.043Z,31.94
2023-01-28T14:53:27.298Z,32.10
2023-01-28T14:56:03.664Z,32.66
2023-01-28T14:58:34.574Z,32.21
2023-01-28T15:01:03.871Z,32.42
2023-01-28T15:03:32.682Z,32.54
2023-01-28T15:06:08.838Z,32.25
2023-01-28T15:08:39.437Z,32.08
2023-01-28T15:11:09.542Z,31.86
2023-01-28T15:13:50.791Z,31.14
2023-01-28T15:16:31.030Z,30.78
2023-01-28T15:19:01.316Z,30.02
2023-01-28T15:21:29.959Z,29.19
2023-01-28T15:23:59.173Z,28.27
2023-01-28T15:26:36.588Z,28.60
2023-01-28T15:29:07.070Z,29.11
2023-01-28T15:31:39.084Z,30.25
2023-01-28T15:37:12.119Z,33.20
2023-01-28T15:39:44.785Z,34.10
2023-01-28T15:42:20.144Z,34.74
2023-01-28T15:44:48.488Z,35.43
2023-01-28T15:47:36.103Z,35.62
2023-01-28T15:50:10.480Z,36.68
2023-01-28T15:52:42.960Z,38.08
2023-01-28T15:55:29.859Z,39.15
2023-01-28T15:58:22.400Z,40.31
2023-01-28T16:00:50.796Z,40.83
2023-01-28T16:03:21.737Z,42.14
2023-01-28T16:06:01.715Z,42.52
2023-01-28T16:08:52.576Z,43.46
2023-01-28T16:11:25.411Z,44.66
2023-01-28T16:13:54.844Z,46.13
2023-01-28T16:17:01.845Z,47.22
2023-01-28T16:19:43.386Z,49.06
2023-01-28T16:22:37.387Z,49.65
2023-01-28T16:57:05.234Z,55.64
2023-01-28T17:10:29.823Z,57.34
2023-01-28T17:12:59.001Z,57.93
2023-01-28T17:15:28.005Z,58.92
2023-01-28T17:18:00.805Z,58.14
2023-01-28T17:20:30.068Z,58.92
2023-01-28T17:22:58.112Z,59.02
2023-01-28T17:25:26.488Z,59.17
2023-01-28T17:27:58.245Z,59.89
2023-01-28T17:30:26.841Z,59.70
2023-01-28T17:32:55.574Z,59.17
2023-01-28T17:35:26.583Z,58.80
2023-01-28T17:38:00.925Z,60.25
2023-01-28T17:40:31.840Z,61.16
2023-01-28T17:43:04.359Z,60.40
2023-01-28T17:45:33.607Z,61.08
2023-01-28T17:48:01.744Z,62.71
2023-01-28T17:50:29.809Z,63.61
2023-01-28T17:52:58.559Z,64.33
2023-01-28T17:55:26.718Z,64.28
2023-01-28T17:57:55.593Z,64.57
2023-01-28T18:00:27.803Z,64.03
2023-01-28T18:02:56.247Z,63.52
2023-01-28T18:05:26.218Z,63.29
2023-01-28T18:07:54.841Z,62.92
2023-01-28T18:10:23.680Z,63.54
2023-01-28T18:12:52.440Z,63.00
2023-01-28T19:22:50.116Z,64.89
2023-01-28T19:25:18.491Z,64.81
2023-01-28T19:57:21.661Z,71.64
2023-01-28T19:59:52.215Z,71.65
2023-01-28T20:02:24.581Z,72.23
2023-01-28T20:05:00.591Z,72.28
2023-01-28T20:07:29.712Z,72.51
2023-01-28T20:09:58.275Z,71.56
2023-01-28T20:25:58.372Z,71.71
2023-01-28T20:28:27.353Z,71.59
2023-01-28T20:30:55.696Z,71.78
2023-01-28T20:47:06.715Z,69.88
2023-01-28T20:49:35.170Z,69.72
2023-01-28T20:52:04.566Z,70.63
2023-01-28T20:54:32.904Z,70.49
2023-01-28T22:00:31.096Z,70.88
2023-01-28T22:02:59.777Z,70.83
2023-01-28T22:05:29.076Z,71.01
2023-01-28T22:07:57.803Z,70.29
2023-01-28T22:10:26.487Z,70.30
2023-01-28T22:12:55.545Z,69.59
2023-01-28T22:15:24.345Z,69.30
2023-01-28T22:17:53.135Z,69.19
2023-01-28T22:20:21.924Z,69.20
2023-01-28T22:22:50.129Z,68.91
2023-01-28T22:25:19.759Z,69.06
2023-01-28T22:27:49.858Z,68.85
2023-01-28T22:30:20.917Z,67.90
2023-01-28T22:32:49.831Z,68.68
2023-01-28T22:35:17.950Z,68.72
2023-01-28T22:37:47.239Z,68.95
2023-01-28T22:40:17.174Z,68.85
2023-01-28T22:42:45.793Z,68.78
2023-01-28T22:45:14.908Z,68.85
2023-01-28T22:47:50.729Z,68.38
2023-01-28T22:50:21.655Z,68.85
2023-01-28T22:52:49.641Z,68.69
2023-01-28T22:55:21.758Z,68.62
2023-01-28T22:57:52.176Z,68.39
2023-01-28T23:00:22.829Z,68.30
2023-01-28T23:02:53.567Z,67.48
2023-01-28T23:13:27.844Z,67.60
2023-01-28T23:16:16.172Z,68.40
2023-01-28T23:19:03.434Z,68.08
2023-01-28T23:21:50.150Z,67.86
2023-01-28T23:24:20.216Z,67.67
2023-01-28T23:26:50.372Z,67.26
2023-01-28T23:32:02.927Z,66.79
2023-01-28T23:34:35.894Z,66.64
2023-01-28T23:37:04.177Z,66.60
2023-01-28T23:39:33.079Z,66.12
2023-01-28T23:42:30.469Z,66.42
2023-01-28T23:44:58.934Z,66.27
2023-01-28T23:47:27.794Z,66.27
2023-01-28T23:49:56.291Z,66.50
2023-01-28T23:52:24.683Z,67.26
2023-01-28T23:57:28.959Z,68.06
2023-01-28T23:59:58.342Z,67.86
